Observations
| Time | Sensor | AQI | SAQ | Temp °C | Hum % | Pres Pa | CO μg/m³ | H₂S μg/m³ | NO μg/m³ | NO₂ μg/m³ | O₃ μg/m³ | SO₂ μg/m³ | CO₂e PPM | VOC PPM | PM1 μg/m³ | PM2.5 μg/m³ | PM4 μg/m³ | PM10 μg/m³ | TPS µm |
|---|---|---|---|---|---|---|---|---|---|---|---|---|---|---|---|---|---|---|---|
| Wednesday 12 August 2026 | |||||||||||||||||||
| 08:17 | Trim Market St | 2 | 20.5 | 69 | 53,056 | 0 | 0 | 1.1 | 31.84 | 54.13 | 0 | 4.99 | 6.51 | 9.43 | |||||
| 08:16 | Trim Patrick St | 2 | 20.8 | 71 | 37,920 | 0 | 10.22 | 1.1 | 31.07 | 58.92 | 0.19 | 8.86 | 13.73 | 15.1 | |||||
| 08:15 | Trim Patrick St | 2 | 20.9 | 71 | 37,740 | 0 | 10.06 | 1.08 | 24.22 | 60.64 | 0.09 | 7.14 | 11.58 | 12.73 | |||||
| 08:14 | Trim Patrick St | 2 | 20.9 | 70 | 37,498 | 0 | 9.67 | 1.08 | 24.56 | 64.53 | 0.54 | 9.71 | 12.32 | 13.55 | |||||
| 08:14 | Trim Market St | 2 | 20.7 | 68 | 53,774 | 0 | 0 | 1.08 | 25.26 | 61.68 | 0 | 4.99 | 7.04 | 10.08 | |||||
| 08:13 | Trim Patrick St | 2 | 20.9 | 70 | 37,177 | 0 | 7.77 | 1.07 | 12.06 | 53.79 | 0.06 | 8.86 | 13.04 | 14.35 | |||||
| 08:13 | Trim Market St | 2 | 20.7 | 68 | 54,238 | 0 | 0 | 1.11 | 19.29 | 62.2 | 0 | 5.7 | 7.05 | 10.72 | |||||
| 08:12 | Trim Patrick St | 2 | 20.9 | 70 | 36,750 | 0 | 11.25 | 1.06 | 37.47 | 61.09 | 0.11 | 8 | 11.67 | 12.83 | |||||
| 08:12 | Trim Market St | 2 | 20.8 | 68 | 54,589 | 0.08 | 0 | 1.11 | 32.57 | 55.5 | 0 | 4.99 | 6.58 | 9.45 | |||||
| 08:11 | Trim Patrick St | 2 | 21 | 70 | 36,179 | 0 | 8.3 | 1.04 | 8.67 | 57.74 | 0 | 9.71 | 13.09 | 14.4 | |||||
| 08:11 | Trim Market St | 2 | 20.9 | 68 | 54,904 | 0 | 0 | 1.12 | 23.3 | 57.65 | 0 | 4.99 | 7.08 | 10.09 | |||||
| 08:10 | Trim Patrick St | 2 | 21.1 | 67 | 35,419 | 0 | 7.4 | 1.08 | 21.1 | 67.81 | 0 | 9.71 | 14.81 | 16.29 | |||||
| 08:10 | Trim Market St | 2 | 20.9 | 67 | 55,171 | 0 | 0 | 1.12 | 39.21 | 53.43 | 0 | 4.28 | 6.12 | 11.39 | |||||
| 08:09 | Trim Patrick St | 2 | 21.1 | 68 | 34,405 | 0 | 9.11 | 1.07 | 28.63 | 59.5 | 0 | 8.86 | 13.26 | 14.58 | |||||
| 08:09 | Trim Market St | 2 | 21 | 67 | 55,458 | 0 | 0 | 1.12 | 25.29 | 57.41 | 0 | 5.7 | 7.61 | 10.75 | |||||
| 08:08 | Trim Patrick St | 2 | 21.2 | 67 | 33,054 | 0 | 10.53 | 1.11 | 40.03 | 61.69 | 0.35 | 8 | 13.38 | 14.72 | |||||
| 08:08 | Trim Market St | 2 | 21.1 | 67 | 55,725 | 0 | 0 | 1.09 | 42.45 | 56.92 | 0 | 4.99 | 7.14 | 10.12 | |||||
| 08:07 | Trim Patrick St | 2 | 21.2 | 67 | 31,252 | 0 | 8.34 | 1.12 | 29.01 | 59.03 | 0.06 | 7.14 | 11.92 | 13.11 | |||||
| 08:07 | Trim Market St | 2 | 21.2 | 66 | 56,022 | 0 | 0 | 1.08 | 12.33 | 60.82 | 0 | 4.99 | 7.16 | 10.12 | |||||
| 08:06 | Trim Patrick St | 2 | 21.3 | 69 | 28,849 | 0 | 8.55 | 1.16 | 43.36 | 48.66 | 1.12 | 10.57 | 14.64 | 16.11 | |||||